createdAt,value
2023-02-23T00:01:50.579Z,94.90
2023-02-23T00:05:52.422Z,94.90
2023-02-23T00:09:54.967Z,94.80
2023-02-23T00:13:56.906Z,95.00
2023-02-23T00:17:59.042Z,94.90
2023-02-23T00:22:01.145Z,94.80
2023-02-23T00:26:04.428Z,94.80
2023-02-23T00:30:07.247Z,94.80
2023-02-23T00:34:11.605Z,94.90
2023-02-23T00:38:13.931Z,94.80
2023-02-23T00:42:15.998Z,94.80
2023-02-23T00:46:21.116Z,94.90
2023-02-23T00:50:23.251Z,94.90
2023-02-23T00:54:25.459Z,94.90
2023-02-23T00:58:27.730Z,94.90
2023-02-23T01:02:32.382Z,95.00
2023-02-23T01:06:37.478Z,95.00
2023-02-23T01:10:42.943Z,95.00
2023-02-23T01:14:47.643Z,95.10
2023-02-23T01:18:49.701Z,95.00
2023-02-23T01:22:52.592Z,95.10
2023-02-23T01:26:54.898Z,95.10
2023-02-23T01:30:56.765Z,95.20
2023-02-23T01:34:58.560Z,95.20
2023-02-23T01:39:00.306Z,95.10
2023-02-23T01:43:29.495Z,95.30
2023-02-23T01:47:31.411Z,95.30
2023-02-23T01:51:42.946Z,95.30
2023-02-23T01:55:46.161Z,95.20
2023-02-23T01:59:49.894Z,95.30
2023-02-23T02:04:05.744Z,95.30
2023-02-23T02:08:10.475Z,95.40
2023-02-23T02:12:12.788Z,95.30
2023-02-23T02:16:42.363Z,95.20
2023-02-23T02:21:22.616Z,95.30
2023-02-23T02:26:10.311Z,95.30
2023-02-23T02:30:26.624Z,95.20
2023-02-23T02:35:02.857Z,95.30
2023-02-23T02:39:34.953Z,95.20
2023-02-23T02:44:11.614Z,95.30
2023-02-23T02:48:19.991Z,95.40
2023-02-23T02:52:35.840Z,95.30
2023-02-23T02:56:43.154Z,95.50
2023-02-23T03:01:08.972Z,95.60
2023-02-23T03:05:34.376Z,95.60
2023-02-23T03:10:14.450Z,95.50
2023-02-23T03:14:54.504Z,95.60
2023-02-23T03:19:29.207Z,95.60
2023-02-23T03:24:21.063Z,95.50
2023-02-23T03:28:50.166Z,95.60
2023-02-23T03:33:14.722Z,95.50
2023-02-23T03:37:49.276Z,95.60
2023-02-23T03:42:13.965Z,95.60
2023-02-23T03:46:36.940Z,95.60
2023-02-23T03:51:09.309Z,95.70
2023-02-23T03:55:40.253Z,95.70
2023-02-23T04:00:10.669Z,95.70
2023-02-23T04:04:34.038Z,95.80
2023-02-23T04:08:57.972Z,95.80
2023-02-23T04:13:14.816Z,95.90
2023-02-23T04:17:18.125Z,96.00
2023-02-23T04:21:20.307Z,96.10
2023-02-23T04:25:22.946Z,96.10
2023-02-23T04:29:24.830Z,96.20
2023-02-23T04:33:27.167Z,96.10
2023-02-23T04:37:28.989Z,96.20
2023-02-23T04:41:30.795Z,96.30
2023-02-23T04:45:33.513Z,96.30
2023-02-23T04:49:35.402Z,96.50
2023-02-23T04:53:38.554Z,96.60
2023-02-23T04:57:40.332Z,96.50
2023-02-23T05:01:42.299Z,96.40
2023-02-23T05:05:44.970Z,96.40
2023-02-23T05:09:46.770Z,96.60
2023-02-23T05:13:48.548Z,96.60
2023-02-23T05:17:50.333Z,96.70
2023-02-23T05:21:52.161Z,96.70
2023-02-23T05:25:53.981Z,96.70
2023-02-23T05:29:55.823Z,96.70
2023-02-23T05:33:57.692Z,96.80
2023-02-23T05:37:59.469Z,96.80
2023-02-23T05:42:01.283Z,96.90
2023-02-23T05:46:11.559Z,96.80
2023-02-23T05:50:13.420Z,97.00
2023-02-23T05:54:15.285Z,97.00
2023-02-23T05:58:17.248Z,97.10
2023-02-23T06:02:19.094Z,97.20
2023-02-23T06:06:22.312Z,97.30
2023-02-23T06:10:24.142Z,97.30
2023-02-23T06:14:26.056Z,97.50
2023-02-23T06:18:29.141Z,97.40
2023-02-23T06:22:31.212Z,97.50
2023-02-23T06:26:33.326Z,97.60
2023-02-23T06:30:36.351Z,97.70
2023-02-23T06:34:38.258Z,97.60
2023-02-23T06:38:40.174Z,97.50
2023-02-23T06:42:41.929Z,97.70
2023-02-23T06:46:43.719Z,97.70
2023-02-23T06:50:45.549Z,97.80
2023-02-23T06:54:48.304Z,97.90
2023-02-23T06:58:50.418Z,97.90
2023-02-23T07:02:52.370Z,97.90
2023-02-23T07:06:54.282Z,98.00
2023-02-23T07:10:57.664Z,98.00
2023-02-23T07:14:59.697Z,98.00
2023-02-23T07:19:01.557Z,98.10
2023-02-23T07:23:03.524Z,98.10
2023-02-23T07:27:05.471Z,98.10
2023-02-23T07:31:07.358Z,98.10
2023-02-23T07:35:09.695Z,98.10
2023-02-23T07:39:11.464Z,98.20
2023-02-23T07:43:13.202Z,98.10
2023-02-23T07:47:15.111Z,98.10
2023-02-23T07:51:17.801Z,98.00
2023-02-23T07:55:20.922Z,97.90
2023-02-23T07:59:22.895Z,98.00
2023-02-23T08:03:24.791Z,98.10
2023-02-23T08:07:26.632Z,98.00
2023-02-23T08:11:31.427Z,98.20
2023-02-23T08:15:33.221Z,98.20
2023-02-23T08:19:35.757Z,98.30
2023-02-23T08:23:37.774Z,98.10
2023-02-23T08:27:40.320Z,98.00
2023-02-23T08:31:42.298Z,98.10
2023-02-23T08:35:45.135Z,98.30
2023-02-23T08:39:46.877Z,98.30
2023-02-23T08:43:49.194Z,98.50
2023-02-23T08:47:51.121Z,98.70
2023-02-23T08:51:52.949Z,98.60
2023-02-23T08:56:03.608Z,98.60
2023-02-23T09:00:16.723Z,98.90
2023-02-23T09:04:18.727Z,98.90
2023-02-23T09:08:21.489Z,99.10
2023-02-23T09:12:23.502Z,99.00
2023-02-23T09:16:25.380Z,99.10
2023-02-23T09:20:27.350Z,99.00
2023-02-23T09:24:29.188Z,98.80
2023-02-23T09:28:31.281Z,99.00
2023-02-23T09:32:33.109Z,98.90
2023-02-23T09:36:34.991Z,98.90
2023-02-23T09:40:57.098Z,98.90
2023-02-23T09:45:11.837Z,98.90
2023-02-23T09:49:18.368Z,99.00
2023-02-23T09:53:31.615Z,99.30
2023-02-23T09:57:40.995Z,99.60
2023-02-23T10:01:47.988Z,99.60
2023-02-23T10:05:58.988Z,99.60
2023-02-23T10:10:18.930Z,99.70
2023-02-23T10:14:35.327Z,99.60
2023-02-23T10:18:56.791Z,99.40
2023-02-23T10:23:05.645Z,99.60
2023-02-23T10:27:16.298Z,99.70
2023-02-23T10:31:26.828Z,99.80
2023-02-23T10:35:30.075Z,99.70
2023-02-23T10:39:32.996Z,99.60
2023-02-23T10:43:34.890Z,99.40
2023-02-23T10:47:37.603Z,99.50
2023-02-23T10:51:41.414Z,99.60
2023-02-23T10:55:45.523Z,99.60
2023-02-23T11:00:20.314Z,99.70
2023-02-23T11:04:29.245Z,99.80
2023-02-23T11:08:41.197Z,99.70
2023-02-23T11:12:43.037Z,99.70
2023-02-23T11:16:44.966Z,99.50
2023-02-23T11:20:48.640Z,99.90
2023-02-23T11:24:51.666Z,99.60
2023-02-23T11:28:59.671Z,99.30
2023-02-23T11:33:10.842Z,99.20
2023-02-23T11:37:21.672Z,98.70
2023-02-23T11:41:24.505Z,98.80
2023-02-23T11:45:33.551Z,98.90
2023-02-23T11:49:39.074Z,99.60
2023-02-23T11:53:46.071Z,99.70
2023-02-23T11:57:50.249Z,99.90
2023-02-23T12:01:54.441Z,99.90
2023-02-23T12:05:59.025Z,99.90
2023-02-23T12:10:23.326Z,99.60
2023-02-23T12:14:40.885Z,99.90
2023-02-23T12:18:49.494Z,99.70
2023-02-23T12:23:12.446Z,99.30
2023-02-23T12:27:42.772Z,99.30
2023-02-23T12:32:06.490Z,98.80
2023-02-23T12:36:29.978Z,98.50
2023-02-23T12:40:35.589Z,98.40
2023-02-23T12:44:43.405Z,98.80
2023-02-23T12:49:02.988Z,98.20
2023-02-23T12:53:22.706Z,98.90
2023-02-23T12:57:56.365Z,99.10
2023-02-23T13:02:01.200Z,98.50
2023-02-23T13:06:38.202Z,98.20
2023-02-23T13:10:55.538Z,97.70
2023-02-23T13:15:09.612Z,97.50
2023-02-23T13:19:21.081Z,97.70
2023-02-23T13:23:32.481Z,97.00
2023-02-23T13:27:39.513Z,96.00
2023-02-23T13:31:42.562Z,95.10
2023-02-23T13:35:44.849Z,95.00
2023-02-23T13:40:14.287Z,94.40
2023-02-23T13:44:37.812Z,94.70
2023-02-23T13:48:56.101Z,93.90
2023-02-23T13:53:04.722Z,93.80
2023-02-23T13:57:18.140Z,94.10
2023-02-23T14:01:31.616Z,94.10
2023-02-23T14:05:43.569Z,93.80
2023-02-23T14:09:53.598Z,94.10
2023-02-23T14:14:01.504Z,93.80
2023-02-23T14:18:25.802Z,94.50
2023-02-23T14:22:28.255Z,94.60
2023-02-23T14:26:29.979Z,95.00
2023-02-23T14:30:51.301Z,96.10
2023-02-23T14:34:57.543Z,95.70
2023-02-23T14:39:16.651Z,95.50
2023-02-23T14:43:42.958Z,95.10
2023-02-23T14:47:48.567Z,93.90
2023-02-23T14:51:55.435Z,93.20
2023-02-23T14:55:58.823Z,92.80
2023-02-23T15:00:06.561Z,93.00
2023-02-23T15:04:34.739Z,92.90
2023-02-23T15:08:43.179Z,93.20
2023-02-23T15:12:49.454Z,93.20
2023-02-23T15:16:51.591Z,94.60
2023-02-23T15:20:53.498Z,95.30
2023-02-23T15:25:00.751Z,95.40
2023-02-23T15:29:14.605Z,95.90
2023-02-23T15:33:23.634Z,96.10
2023-02-23T15:37:33.935Z,96.30
2023-02-23T15:41:38.313Z,96.50
2023-02-23T15:45:49.044Z,96.60
2023-02-23T15:50:12.697Z,96.90
2023-02-23T15:54:26.981Z,97.20
2023-02-23T15:58:44.529Z,97.00
2023-02-23T16:02:55.740Z,96.90
2023-02-23T16:07:15.305Z,97.20
2023-02-23T16:11:19.245Z,97.80
2023-02-23T16:15:24.254Z,98.30
2023-02-23T16:19:28.268Z,98.50
2023-02-23T16:23:52.629Z,98.40
2023-02-23T16:28:12.613Z,98.60
2023-02-23T16:32:19.348Z,98.50
2023-02-23T16:36:23.940Z,98.30
2023-02-23T16:40:25.822Z,98.10
2023-02-23T16:44:37.782Z,98.00
2023-02-23T16:48:45.636Z,97.80
2023-02-23T16:52:51.859Z,97.80
2023-02-23T16:56:55.865Z,97.90
2023-02-23T17:00:57.848Z,97.80
2023-02-23T17:04:59.652Z,97.80
2023-02-23T17:09:01.451Z,98.00
2023-02-23T17:13:06.575Z,98.50
2023-02-23T17:17:13.841Z,98.50
2023-02-23T17:21:22.874Z,98.50
2023-02-23T17:25:26.487Z,98.30
2023-02-23T17:29:28.351Z,98.40
2023-02-23T17:33:33.786Z,98.60
2023-02-23T17:37:37.586Z,98.70
2023-02-23T17:41:39.577Z,98.60
2023-02-23T17:45:41.547Z,98.60
2023-02-23T17:49:43.423Z,98.40
2023-02-23T17:53:45.230Z,98.40
2023-02-23T17:57:47.535Z,98.30
2023-02-23T18:01:49.823Z,98.20
2023-02-23T18:05:52.826Z,98.00
2023-02-23T18:09:54.731Z,98.00
2023-02-23T18:13:56.552Z,97.90
2023-02-23T18:17:59.481Z,98.00
2023-02-23T18:22:01.322Z,98.10
2023-02-23T18:26:09.200Z,98.10
2023-02-23T18:30:11.836Z,98.10
2023-02-23T18:34:14.315Z,98.10
2023-02-23T18:38:16.233Z,98.20
2023-02-23T18:42:17.994Z,98.10
2023-02-23T18:46:19.873Z,98.20
2023-02-23T18:50:21.815Z,98.30
2023-02-23T18:54:26.621Z,98.40
2023-02-23T18:58:28.441Z,98.60
2023-02-23T19:02:30.214Z,98.40
2023-02-23T19:06:32.975Z,98.30
2023-02-23T19:10:36.330Z,98.40
2023-02-23T19:14:49.310Z,98.60
2023-02-23T19:18:51.777Z,99.00
2023-02-23T19:22:53.550Z,99.40
2023-02-23T19:26:55.389Z,99.20
2023-02-23T19:31:08.922Z,99.20
2023-02-23T19:35:14.844Z,99.00
2023-02-23T19:39:16.767Z,98.80
2023-02-23T19:43:18.636Z,98.70
2023-02-23T19:47:20.459Z,98.70
2023-02-23T19:51:23.453Z,98.60
2023-02-23T19:55:25.683Z,98.60
2023-02-23T19:59:28.563Z,98.80
2023-02-23T20:03:30.430Z,99.80
2023-02-23T20:07:32.342Z,99.50
2023-02-23T20:11:34.205Z,99.30
2023-02-23T20:15:36.363Z,99.20
2023-02-23T20:19:38.616Z,99.10
2023-02-23T20:23:41.750Z,99.00
2023-02-23T20:27:44.418Z,99.10
2023-02-23T20:31:50.429Z,99.00
2023-02-23T20:35:52.426Z,99.20
2023-02-23T20:39:54.421Z,99.40
2023-02-23T20:43:56.705Z,99.40
2023-02-23T20:47:58.743Z,99.40
2023-02-23T20:52:01.549Z,99.40
2023-02-23T20:56:07.467Z,99.60
2023-02-23T21:00:10.271Z,99.70
2023-02-23T21:04:13.185Z,99.70
2023-02-23T21:08:15.703Z,99.70
2023-02-23T21:12:17.708Z,99.70
2023-02-23T21:16:20.811Z,99.90
2023-02-23T21:20:23.939Z,99.80
2023-02-23T21:24:26.433Z,99.70
2023-02-23T21:28:28.211Z,99.70
2023-02-23T21:32:35.377Z,99.90
2023-02-23T21:36:37.545Z,99.90
2023-02-23T21:40:42.218Z,99.90
2023-02-23T21:44:44.523Z,99.70
2023-02-23T21:48:46.406Z,99.90
2023-02-23T21:52:50.365Z,99.90
2023-02-23T21:56:52.225Z,99.90
2023-02-23T22:00:54.205Z,99.90
2023-02-23T22:04:56.580Z,99.90
2023-02-23T22:08:58.438Z,99.90
2023-02-23T22:13:00.862Z,99.90
2023-02-23T22:17:03.886Z,99.90
2023-02-23T22:21:05.812Z,99.90
2023-02-23T22:25:08.401Z,99.90
2023-02-23T22:29:10.992Z,99.90
2023-02-23T22:33:12.939Z,99.90
2023-02-23T22:37:14.768Z,99.90
2023-02-23T22:41:16.655Z,99.90
2023-02-23T22:45:18.769Z,99.90
2023-02-23T22:49:20.619Z,99.90
2023-02-23T22:53:23.016Z,99.90
2023-02-23T22:57:24.838Z,99.90
2023-02-23T23:01:27.156Z,99.90
2023-02-23T23:05:28.938Z,99.90
2023-02-23T23:09:30.707Z,99.90
2023-02-23T23:13:32.518Z,99.90
2023-02-23T23:17:34.374Z,99.90
2023-02-23T23:21:36.272Z,99.90
2023-02-23T23:25:41.796Z,99.90
2023-02-23T23:29:46.558Z,99.90
2023-02-23T23:33:51.562Z,99.90
2023-02-23T23:37:53.371Z,99.90
2023-02-23T23:41:55.298Z,99.90
2023-02-23T23:45:57.869Z,99.90
2023-02-23T23:49:59.902Z,99.90
2023-02-23T23:54:02.913Z,99.90
2023-02-23T23:58:06.130Z,99.90
